Time;durP1;ratioP1;P1;durP2;ratioP2;P2;SDS_P1;SDS_P2;PMS_P1;PMS_P2;Temp;Humidity;BMP_temperature;BMP_pressure;BME280_temperature;BME280_humidity;BME280_pressure;Samples;Min_cycle;Max_cycle;Signal;HPM_P1;HPM_P2
2022/05/20 00:00:23;;;;;;;6.82;6.10;;;14.30;99.90;;;;;;5045504;28;20062;-78
2022/05/20 00:02:49;;;;;;;5.93;5.32;;;14.30;99.90;;;;;;5050847;28;20076;-78
2022/05/20 00:05:15;;;;;;;6.97;4.70;;;14.30;99.90;;;;;;5046682;28;20039;-78
2022/05/20 00:07:41;;;;;;;5.95;4.90;;;14.30;99.90;;;;;;5052782;28;20044;-78
2022/05/20 00:10:09;;;;;;;6.78;4.70;;;14.20;99.90;;;;;;5049605;28;20335;-77
2022/05/20 00:12:36;;;;;;;4.88;4.10;;;14.20;99.90;;;;;;5032789;28;20033;-78
2022/05/20 00:15:04;;;;;;;5.22;4.53;;;14.20;99.90;;;;;;5043977;28;20056;-78
2022/05/20 00:17:30;;;;;;;7.65;4.22;;;14.20;99.90;;;;;;5048001;28;20070;-78
2022/05/20 00:19:55;;;;;;;6.97;4.22;;;14.10;99.90;;;;;;5071951;28;20036;-77
2022/05/20 00:22:21;;;;;;;6.28;4.25;;;14.10;99.90;;;;;;5046572;28;20072;-78
2022/05/20 00:27:30;;;;;;;4.70;3.75;;;14.00;99.90;;;;;;5038571;28;20601;-78
2022/05/20 00:29:57;;;;;;;5.93;4.05;;;13.90;99.90;;;;;;5030409;28;20044;-78
2022/05/20 00:32:23;;;;;;;5.32;3.97;;;14.00;99.90;;;;;;5046032;28;20367;-78
2022/05/20 00:34:49;;;;;;;7.90;4.18;;;14.00;99.90;;;;;;5042043;28;20058;-78
2022/05/20 00:37:14;;;;;;;5.15;3.80;;;14.00;99.90;;;;;;5047016;28;20090;-77
2022/05/20 00:39:40;;;;;;;6.25;3.47;;;14.00;99.90;;;;;;5067150;28;20048;-78
2022/05/20 00:42:17;;;;;;;10.75;4.32;;;14.10;99.90;;;;;;5044820;28;20064;-78
2022/05/20 00:44:43;;;;;;;5.72;4.80;;;14.10;99.90;;;;;;5047419;28;20064;-77
2022/05/20 00:47:11;;;;;;;5.97;4.30;;;14.00;99.90;;;;;;5046526;28;20040;-77
2022/05/20 00:49:39;;;;;;;7.93;5.00;;;13.90;99.90;;;;;;5046677;28;20045;-77
2022/05/20 00:52:10;;;;;;;5.93;4.40;;;14.00;99.90;;;;;;5050966;28;20067;-78
2022/05/20 00:54:41;;;;;;;5.22;3.88;;;14.00;99.90;;;;;;5047122;28;20041;-78
2022/05/20 00:57:42;;;;;;;6.03;4.40;;;14.00;99.90;;;;;;5048947;28;20072;-78
2022/05/20 01:00:16;;;;;;;5.13;4.03;;;14.00;99.90;;;;;;4974211;28;20109;-78
2022/05/20 01:02:42;;;;;;;6.15;4.60;;;14.00;99.90;;;;;;5059296;28;20036;-78
2022/05/20 01:05:34;;;;;;;5.57;4.53;;;13.90;99.90;;;;;;5048783;28;20446;-78
2022/05/20 01:08:00;;;;;;;5.03;4.30;;;13.90;99.90;;;;;;5046520;28;20040;-78
2022/05/20 01:10:26;;;;;;;7.55;4.60;;;14.00;99.90;;;;;;5052416;28;20041;-78
2022/05/20 01:12:53;;;;;;;6.70;4.80;;;14.00;99.90;;;;;;5065458;28;20048;-78
2022/05/20 01:15:19;;;;;;;5.30;4.57;;;14.00;99.90;;;;;;5051033;28;20040;-78
2022/05/20 01:17:47;;;;;;;5.70;4.40;;;14.00;99.90;;;;;;5046791;28;20044;-78
2022/05/20 01:20:18;;;;;;;5.90;5.10;;;13.90;99.90;;;;;;5050149;28;20032;-78
2022/05/20 01:22:58;;;;;;;5.65;5.07;;;13.90;99.90;;;;;;5062509;28;20076;-78
2022/05/20 01:25:25;;;;;;;5.28;4.53;;;13.90;99.90;;;;;;5031694;28;20044;-78
2022/05/20 01:27:51;;;;;;;7.70;4.93;;;13.80;99.90;;;;;;5052821;28;20064;-78
2022/05/20 01:30:22;;;;;;;8.70;5.40;;;13.70;99.90;;;;;;5048206;28;20080;-78
2022/05/20 01:32:48;;;;;;;7.00;5.00;;;13.60;99.90;;;;;;5054160;28;20058;-78
2022/05/20 01:35:21;;;;;;;8.32;5.22;;;13.60;99.90;;;;;;5061445;28;20481;-78
2022/05/20 01:37:47;;;;;;;9.25;5.30;;;13.50;99.90;;;;;;5054666;28;20053;-78
2022/05/20 01:40:12;;;;;;;7.53;5.38;;;13.50;99.90;;;;;;5030081;28;20487;-78
2022/05/20 01:42:46;;;;;;;8.40;5.93;;;13.30;99.90;;;;;;5053222;28;20064;-78
2022/05/20 01:45:14;;;;;;;9.20;5.28;;;13.30;99.90;;;;;;5071421;28;20037;-78
2022/05/20 01:47:47;;;;;;;5.88;5.25;;;13.30;99.90;;;;;;5052051;28;20071;-78
2022/05/20 01:50:20;;;;;;;7.60;5.75;;;13.20;99.90;;;;;;5037921;28;20040;-78
2022/05/20 01:53:19;;;;;;;6.72;5.55;;;13.20;99.90;;;;;;5047375;28;20052;-78
2022/05/20 01:56:11;;;;;;;8.38;5.55;;;13.10;99.90;;;;;;5043375;28;20059;-78
2022/05/20 01:58:59;;;;;;;8.73;5.85;;;13.10;99.90;;;;;;5051856;28;20131;-78
2022/05/20 02:01:33;;;;;;;7.35;5.60;;;13.10;99.90;;;;;;5058888;28;20048;-78
2022/05/20 02:04:04;;;;;;;10.10;6.50;;;13.10;99.90;;;;;;5038774;28;20040;-78
2022/05/20 02:06:38;;;;;;;7.45;5.88;;;13.00;99.90;;;;;;5056885;28;20032;-78
2022/05/20 02:09:31;;;;;;;6.50;5.85;;;13.00;99.90;;;;;;5072247;28;20062;-78
2022/05/20 02:11:57;;;;;;;6.72;5.95;;;12.90;99.90;;;;;;5032141;28;20028;-78
2022/05/20 02:14:37;;;;;;;6.70;6.00;;;12.90;99.90;;;;;;5051032;28;20470;-78
2022/05/20 02:17:15;;;;;;;6.43;5.80;;;12.80;99.90;;;;;;5045948;28;20041;-78
2022/05/20 02:19:52;;;;;;;7.90;6.65;;;12.80;99.90;;;;;;5049752;28;20199;-78
2022/05/20 02:22:22;;;;;;;8.57;6.93;;;12.80;99.90;;;;;;5034853;28;20127;-78
2022/05/20 02:24:48;;;;;;;8.35;7.22;;;12.80;99.90;;;;;;5068282;28;20037;-77
2022/05/20 02:27:22;;;;;;;8.00;7.15;;;12.70;99.90;;;;;;5048683;28;20041;-78
2022/05/20 02:30:04;;;;;;;10.15;8.75;;;12.70;99.90;;;;;;5045231;28;20052;-78
2022/05/20 02:32:34;;;;;;;9.02;7.85;;;12.70;99.90;;;;;;5049510;28;20112;-78
2022/05/20 02:35:01;;;;;;;10.20;9.20;;;12.60;99.90;;;;;;5062145;28;20040;-78
2022/05/20 02:37:32;;;;;;;9.50;7.47;;;12.60;99.90;;;;;;5050694;28;20122;-77
2022/05/20 02:39:59;;;;;;;9.50;8.60;;;12.60;99.90;;;;;;5052766;28;20056;-78
2022/05/20 02:42:28;;;;;;;9.77;8.65;;;12.60;99.90;;;;;;5036863;28;20040;-77
2022/05/20 02:44:55;;;;;;;9.52;8.57;;;12.50;99.90;;;;;;5053926;28;20402;-78
2022/05/20 02:47:21;;;;;;;9.98;9.05;;;12.50;99.90;;;;;;5064290;28;20036;-78
2022/05/20 02:49:46;;;;;;;9.90;8.85;;;12.40;99.90;;;;;;5029660;28;20045;-78
2022/05/20 02:52:12;;;;;;;10.00;8.95;;;12.30;99.90;;;;;;5069306;28;20055;-78
2022/05/20 02:54:38;;;;;;;11.00;9.80;;;12.30;99.90;;;;;;5044306;28;20094;-78
2022/05/20 02:57:04;;;;;;;9.60;8.70;;;12.20;99.90;;;;;;5050728;28;20484;-78
2022/05/20 03:04:58;;;;;;;9.48;8.68;;;12.00;99.90;;;;;;5048006;28;20087;-78
2022/05/20 03:07:24;;;;;;;9.32;8.45;;;12.00;99.90;;;;;;5063488;28;20854;-78
2022/05/20 03:09:51;;;;;;;8.30;7.50;;;11.90;99.90;;;;;;5053204;28;20037;-78
2022/05/20 03:12:18;;;;;;;9.07;8.18;;;11.90;99.90;;;;;;5046496;28;20356;-78
2022/05/20 03:14:44;;;;;;;8.55;7.78;;;11.80;99.90;;;;;;5052927;28;20064;-78
2022/05/20 03:17:09;;;;;;;7.63;6.97;;;11.80;99.90;;;;;;5047267;28;20070;-78
2022/05/20 03:19:36;;;;;;;10.25;8.68;;;11.80;99.90;;;;;;5052000;28;20086;-78
2022/05/20 03:22:04;;;;;;;9.60;8.65;;;11.70;99.90;;;;;;5057666;28;20052;-78
2022/05/20 03:24:30;;;;;;;9.10;8.30;;;11.60;99.90;;;;;;5055710;28;20094;-78
2022/05/20 03:26:56;;;;;;;10.23;9.23;;;11.60;99.90;;;;;;5050347;28;20047;-78
2022/05/20 03:29:21;;;;;;;10.25;9.25;;;11.60;99.90;;;;;;5051181;28;20032;-78
2022/05/20 03:31:47;;;;;;;10.77;9.88;;;11.50;99.90;;;;;;5047319;28;20112;-78
2022/05/20 03:34:14;;;;;;;10.70;9.80;;;11.60;99.90;;;;;;5049878;28;20036;-78
2022/05/20 03:36:42;;;;;;;10.95;9.95;;;11.50;99.90;;;;;;5053298;28;20048;-78
2022/05/20 03:39:12;;;;;;;13.93;10.85;;;11.50;99.90;;;;;;5045002;28;20048;-78
2022/05/20 03:41:38;;;;;;;11.48;10.43;;;11.40;99.90;;;;;;5063385;28;20132;-78
2022/05/20 03:44:06;;;;;;;11.55;10.55;;;11.40;99.90;;;;;;5056875;28;20052;-77
2022/05/20 03:46:32;;;;;;;12.25;11.05;;;11.30;99.90;;;;;;5053655;28;20590;-78
2022/05/20 03:49:01;;;;;;;14.50;13.18;;;11.30;99.90;;;;;;5049051;28;20508;-78
2022/05/20 03:51:27;;;;;;;13.40;12.20;;;11.30;99.90;;;;;;5053603;28;20094;-78
2022/05/20 03:53:52;;;;;;;12.32;11.23;;;11.30;99.90;;;;;;5053963;28;20491;-78
2022/05/20 03:56:18;;;;;;;12.80;11.60;;;11.30;99.90;;;;;;5059538;28;20127;-78
2022/05/20 03:58:43;;;;;;;11.70;10.70;;;11.30;99.90;;;;;;5071656;28;20051;-77
2022/05/20 04:03:56;;;;;;;12.82;11.65;;;11.30;99.90;;;;;;5050434;28;20045;-78
2022/05/20 04:06:22;;;;;;;11.80;10.80;;;11.40;99.90;;;;;;5039962;28;20036;-77
2022/05/20 04:08:48;;;;;;;12.13;10.85;;;11.40;99.90;;;;;;5034985;28;20036;-78
2022/05/20 04:11:14;;;;;;;10.85;9.75;;;11.40;99.90;;;;;;5060229;28;20036;-78
2022/05/20 04:13:43;;;;;;;9.77;8.85;;;11.40;99.90;;;;;;5052041;28;20036;-77
2022/05/20 04:16:11;;;;;;;8.75;7.93;;;11.50;99.90;;;;;;5052689;28;20040;-77
2022/05/20 04:18:38;;;;;;;8.38;7.60;;;11.50;99.90;;;;;;5051519;28;20048;-77
2022/05/20 04:21:04;;;;;;;8.52;7.82;;;11.60;99.90;;;;;;5038763;28;20058;-77
2022/05/20 04:23:30;;;;;;;9.25;8.35;;;11.70;99.90;;;;;;5060670;28;20045;-77
2022/05/20 04:25:55;;;;;;;9.32;8.50;;;11.70;99.90;;;;;;5049061;28;20502;-77
2022/05/20 04:28:21;;;;;;;9.25;8.40;;;11.80;99.90;;;;;;5050077;28;20127;-77
2022/05/20 04:30:47;;;;;;;10.65;9.65;;;11.80;99.90;;;;;;5051778;28;20377;-77
2022/05/20 04:33:13;;;;;;;9.10;8.30;;;11.90;99.90;;;;;;5049628;28;20044;-78
2022/05/20 04:35:39;;;;;;;9.85;9.05;;;12.00;99.90;;;;;;5052936;28;20443;-78
2022/05/20 04:38:04;;;;;;;11.80;10.70;;;12.00;99.90;;;;;;5054105;28;20063;-78
2022/05/20 04:40:30;;;;;;;12.45;11.15;;;12.10;99.90;;;;;;5049216;28;20044;-78
2022/05/20 04:48:25;;;;;;;15.65;13.25;;;12.20;99.90;;;;;;5052271;28;20044;-77
2022/05/20 04:50:50;;;;;;;20.33;11.90;;;12.30;99.90;;;;;;5048196;28;20040;-77
2022/05/20 04:54:49;;;;;;;12.73;11.52;;;12.30;99.90;;;;;;5051845;28;20040;-77
2022/05/20 04:56:02;;;;;;;15.63;13.50;;;12.30;99.90;;;;;;5056008;28;20052;-77
2022/05/20 04:58:27;;;;;;;14.15;12.80;;;12.40;99.90;;;;;;5050206;28;20119;-78
2022/05/20 05:00:56;;;;;;;13.80;12.10;;;12.30;99.90;;;;;;5048342;28;20054;-74
2022/05/20 05:03:21;;;;;;;13.07;11.73;;;12.40;99.90;;;;;;5063250;28;20036;-74
2022/05/20 05:05:47;;;;;;;14.25;12.82;;;12.40;99.90;;;;;;5054871;28;20033;-74
2022/05/20 05:08:16;;;;;;;15.13;13.70;;;12.40;99.90;;;;;;5054761;28;20071;-74
2022/05/20 05:10:43;;;;;;;15.70;13.65;;;12.50;99.90;;;;;;5059360;28;20033;-74
2022/05/20 05:13:09;;;;;;;15.82;14.18;;;12.60;99.90;;;;;;5047452;28;20485;-74
2022/05/20 05:15:35;;;;;;;16.75;14.40;;;12.60;99.90;;;;;;5038457;28;20728;-74
2022/05/20 05:18:14;;;;;;;17.77;16.02;;;12.70;99.90;;;;;;5054826;28;21945;-74
2022/05/20 05:20:48;;;;;;;19.20;16.83;;;12.90;99.90;;;;;;5050637;28;20120;-74
2022/05/20 05:23:15;;;;;;;18.13;16.20;;;13.00;99.90;;;;;;5056296;28;20072;-74
2022/05/20 05:25:41;;;;;;;17.75;15.70;;;13.10;99.90;;;;;;5056143;28;20040;-74
2022/05/20 05:28:07;;;;;;;19.15;17.33;;;13.10;99.90;;;;;;5050489;28;20119;-74
2022/05/20 05:30:33;;;;;;;17.92;16.13;;;13.20;99.90;;;;;;5075067;28;20054;-74
2022/05/20 05:32:59;;;;;;;17.45;14.40;;;13.30;99.90;;;;;;5038347;28;20454;-74
2022/05/20 05:35:27;;;;;;;17.70;15.88;;;13.40;99.90;;;;;;5051447;28;20044;-74
2022/05/20 05:37:53;;;;;;;17.40;15.70;;;13.50;99.90;;;;;;5052036;28;20044;-74
2022/05/20 05:40:22;;;;;;;18.08;16.17;;;13.50;99.90;;;;;;5071749;28;20102;-74
2022/05/20 05:42:48;;;;;;;17.55;15.95;;;13.60;99.90;;;;;;5036123;28;20071;-74
2022/05/20 05:45:20;;;;;;;18.63;15.20;;;13.70;99.90;;;;;;5053475;28;20033;-74
2022/05/20 05:47:50;;;;;;;17.55;15.27;;;13.90;99.90;;;;;;5055992;28;20048;-74
2022/05/20 05:50:15;;;;;;;14.98;13.57;;;14.20;99.90;;;;;;5037376;28;20457;-74
2022/05/20 05:52:41;;;;;;;14.68;13.25;;;15.70;99.90;;;;;;5054457;28;20060;-74
2022/05/20 05:55:07;;;;;;;13.20;11.50;;;17.40;99.90;;;;;;5055890;28;20033;-74
2022/05/20 05:57:32;;;;;;;11.70;10.70;;;18.80;99.90;;;;;;5034075;28;20120;-74
2022/05/20 05:59:58;;;;;;;14.25;11.50;;;19.80;99.90;;;;;;5070308;28;20059;-74
2022/05/20 06:02:24;;;;;;;9.45;8.55;;;20.30;99.90;;;;;;5033357;28;20074;-74
2022/05/20 06:04:51;;;;;;;9.63;8.52;;;21.60;99.90;;;;;;5050575;28;20045;-74
2022/05/20 06:07:17;;;;;;;8.65;7.78;;;21.90;99.90;;;;;;5052086;28;20680;-74
2022/05/20 06:09:43;;;;;;;9.02;6.88;;;21.90;98.60;;;;;;5060580;28;20098;-74
2022/05/20 06:12:09;;;;;;;7.03;6.32;;;21.90;98.20;;;;;;5055110;28;20041;-74
2022/05/20 06:14:35;;;;;;;10.77;7.43;;;22.80;99.90;;;;;;5055324;28;20042;-74
2022/05/20 06:17:01;;;;;;;9.32;7.20;;;23.00;98.60;;;;;;5055386;28;20044;-74
2022/05/20 06:19:27;;;;;;;8.68;7.00;;;22.30;96.30;;;;;;5059240;28;20350;-74
2022/05/20 06:21:52;;;;;;;9.55;6.90;;;22.90;94.00;;;;;;5063046;28;20245;-74
2022/05/20 06:24:18;;;;;;;8.10;6.53;;;22.70;94.90;;;;;;5052239;28;20044;-74
2022/05/20 06:26:43;;;;;;;8.98;6.30;;;22.90;97.00;;;;;;5054875;28;20045;-74
2022/05/20 06:29:10;;;;;;;6.32;5.15;;;22.40;94.00;;;;;;5053012;28;20040;-74
2022/05/20 06:31:36;;;;;;;7.38;6.13;;;21.80;96.50;;;;;;5054311;28;20496;-74
2022/05/20 06:34:01;;;;;;;7.20;5.82;;;21.10;96.40;;;;;;5048607;28;20048;-74
2022/05/20 06:41:56;;;;;;;7.43;5.28;;;23.90;95.70;;;;;;5048851;28;20048;-74
2022/05/20 06:44:24;;;;;;;8.10;5.78;;;25.20;94.40;;;;;;5048564;28;20383;-74
2022/05/20 06:46:51;;;;;;;7.88;5.05;;;25.30;91.50;;;;;;5048230;28;20482;-74
2022/05/20 06:49:16;;;;;;;7.88;4.65;;;25.00;89.20;;;;;;5050590;28;20044;-74
2022/05/20 06:51:42;;;;;;;7.00;4.72;;;24.90;89.20;;;;;;5050732;28;20041;-74
2022/05/20 06:54:11;;;;;;;6.15;5.15;;;24.40;90.30;;;;;;5040718;22;20057;-79
2022/05/20 06:56:37;;;;;;;7.65;6.00;;;24.70;90.80;;;;;;5009877;28;20077;-79
2022/05/20 06:59:05;;;;;;;8.45;4.03;;;24.10;86.90;;;;;;5013747;28;20092;-78
2022/05/20 07:01:31;;;;;;;5.35;4.00;;;23.50;88.20;;;;;;5011644;28;20040;-79
2022/05/20 07:03:57;;;;;;;32.35;5.40;;;23.90;87.30;;;;;;5012900;28;20403;-78
2022/05/20 07:06:23;;;;;;;8.98;3.90;;;24.20;88.70;;;;;;5031930;28;20037;-79
2022/05/20 07:08:49;;;;;;;5.43;2.72;;;24.80;89.30;;;;;;5029083;28;20391;-79
2022/05/20 07:11:18;;;;;;;7.07;3.20;;;24.80;79.70;;;;;;5010034;28;20048;-77
2022/05/20 07:13:44;;;;;;;6.22;3.53;;;24.40;85.50;;;;;;5009753;28;20049;-77
2022/05/20 07:16:09;;;;;;;5.40;3.33;;;23.80;85.80;;;;;;5021770;28;20037;-77
2022/05/20 07:18:35;;;;;;;5.13;3.90;;;22.80;86.40;;;;;;5015942;28;20049;-77
2022/05/20 07:21:01;;;;;;;6.60;4.00;;;22.20;90.60;;;;;;5012305;28;20037;-79
2022/05/20 07:23:29;;;;;;;6.15;4.13;;;21.70;91.80;;;;;;4996950;28;20128;-78
2022/05/20 07:25:55;;;;;;;9.68;4.07;;;21.30;92.50;;;;;;5012115;28;20137;-79
2022/05/20 07:28:21;;;;;;;7.40;4.13;;;21.70;94.10;;;;;;5017927;28;20045;-79
2022/05/20 07:30:46;;;;;;;6.75;3.95;;;22.20;93.20;;;;;;5032284;28;20048;-78
2022/05/20 07:33:12;;;;;;;7.50;4.00;;;22.50;92.80;;;;;;5024643;28;20452;-77
2022/05/20 07:35:39;;;;;;;5.68;3.72;;;23.70;91.50;;;;;;5005525;28;20608;-78
2022/05/20 07:38:05;;;;;;;4.88;3.53;;;24.80;91.00;;;;;;5007991;28;20113;-78
2022/05/20 07:40:31;;;;;;;5.65;4.22;;;25.40;90.00;;;;;;5019576;28;20061;-76
2022/05/20 07:42:56;;;;;;;5.47;4.13;;;25.60;85.20;;;;;;5007185;28;20156;-78
2022/05/20 07:45:22;;;;;;;5.40;4.00;;;25.80;85.40;;;;;;4998292;28;20132;-80
2022/05/20 07:47:49;;;;;;;5.28;4.60;;;26.00;84.80;;;;;;5003637;28;20506;-80
2022/05/20 07:50:14;;;;;;;7.15;4.95;;;26.00;84.80;;;;;;5011641;28;20203;-78
2022/05/20 07:55:32;;;;;;;7.63;4.85;;;26.40;80.90;;;;;;5013970;28;20080;-79
2022/05/20 07:57:58;;;;;;;6.68;4.53;;;26.40;81.10;;;;;;5014326;28;20044;-79
2022/05/20 08:00:24;;;;;;;6.00;5.30;;;26.10;80.70;;;;;;5026849;28;20037;-78
2022/05/20 08:02:51;;;;;;;8.13;5.70;;;25.60;79.50;;;;;;5003803;28;20107;-78
2022/05/20 08:05:21;;;;;;;6.82;6.13;;;25.20;81.60;;;;;;5006939;28;20060;-78
2022/05/20 08:07:48;;;;;;;6.28;4.65;;;23.90;80.60;;;;;;5017632;28;20040;-78
2022/05/20 08:10:21;;;;;;;6.15;4.30;;;23.60;85.30;;;;;;5003438;28;20462;-77
2022/05/20 08:12:47;;;;;;;8.15;5.10;;;22.80;86.20;;;;;;5047681;28;20045;-78
2022/05/20 08:15:14;;;;;;;5.47;4.05;;;22.40;87.50;;;;;;5016160;28;20041;-78
2022/05/20 08:17:41;;;;;;;11.50;4.72;;;22.10;88.30;;;;;;4995332;28;20077;-78
2022/05/20 08:20:16;;;;;;;7.25;3.60;;;22.00;90.60;;;;;;5006179;28;20053;-78
2022/05/20 08:22:42;;;;;;;6.15;4.00;;;21.30;88.60;;;;;;5017502;28;20383;-78
2022/05/20 08:25:08;;;;;;;6.38;4.43;;;20.90;90.10;;;;;;5026794;28;20045;-77
2022/05/20 08:27:34;;;;;;;6.13;4.60;;;20.60;91.80;;;;;;5015182;28;20095;-78
2022/05/20 08:30:07;;;;;;;6.22;4.32;;;20.60;92.90;;;;;;5013289;28;20037;-78
2022/05/20 08:32:33;;;;;;;6.68;4.57;;;20.60;93.10;;;;;;5025181;28;20033;-77
2022/05/20 08:34:58;;;;;;;5.68;4.20;;;20.80;94.10;;;;;;4982017;28;20107;-78
2022/05/20 08:37:24;;;;;;;6.85;4.80;;;20.90;93.40;;;;;;5002024;28;20065;-75
2022/05/20 08:39:49;;;;;;;6.43;4.75;;;20.30;93.80;;;;;;5025118;28;20049;-75
2022/05/20 08:42:22;;;;;;;8.20;5.30;;;20.10;94.90;;;;;;5021174;28;20364;-75
2022/05/20 08:44:48;;;;;;;8.30;4.53;;;20.00;96.60;;;;;;5018746;28;20140;-74
2022/05/20 08:47:23;;;;;;;5.60;4.85;;;19.80;95.90;;;;;;5021980;28;20071;-74
2022/05/20 08:49:51;;;;;;;7.53;4.22;;;20.00;96.80;;;;;;5003934;28;20410;-74
2022/05/20 08:52:17;;;;;;;6.53;4.50;;;20.10;96.30;;;;;;5003191;28;20041;-74
2022/05/20 08:54:43;;;;;;;7.75;4.43;;;20.10;96.50;;;;;;5029937;28;20044;-74
2022/05/20 08:57:24;;;;;;;6.40;4.07;;;20.30;96.80;;;;;;5030396;28;20463;-74
2022/05/20 08:59:50;;;;;;;;;;;20.20;95.50;;;;;;4995387;28;20378;-74
2022/05/20 09:02:16;;;;;;;7.50;4.05;;;20.40;95.30;;;;;;5012904;28;20381;-74
2022/05/20 09:04:42;;;;;;;6.22;4.18;;;20.50;95.80;;;;;;5010952;28;20045;-74
2022/05/20 09:07:11;;;;;;;7.05;4.03;;;20.70;96.20;;;;;;5008136;28;20033;-74
2022/05/20 09:09:42;;;;;;;5.25;3.85;;;20.90;95.80;;;;;;5002569;28;20037;-74
2022/05/20 09:12:08;;;;;;;7.55;3.65;;;21.10;96.10;;;;;;5011582;28;20171;-75
2022/05/20 09:17:21;;;;;;;8.25;3.60;;;20.90;95.40;;;;;;5032209;28;20052;-75
2022/05/20 09:20:04;;;;;;;7.32;4.13;;;21.20;94.80;;;;;;5003549;28;20403;-75
2022/05/20 09:22:35;;;;;;;7.43;4.70;;;20.50;94.40;;;;;;5018507;28;20045;-75
2022/05/20 09:25:01;;;;;;;5.43;4.15;;;20.40;95.10;;;;;;5009205;28;20037;-75
2022/05/20 09:27:29;;;;;;;7.30;4.50;;;20.60;96.00;;;;;;5021514;28;20071;-75
2022/05/20 09:30:05;;;;;;;5.22;3.83;;;20.80;94.40;;;;;;5021375;28;20049;-75
2022/05/20 09:32:38;;;;;;;5.90;3.80;;;21.00;95.20;;;;;;5008285;28;20082;-75
2022/05/20 09:35:22;;;;;;;7.53;3.78;;;20.90;95.10;;;;;;5018116;28;20037;-75
2022/05/20 09:37:51;;;;;;;4.53;3.80;;;21.20;95.40;;;;;;5024457;28;20380;-75
2022/05/20 09:40:22;;;;;;;5.15;4.05;;;21.10;94.20;;;;;;5013743;28;20073;-75
2022/05/20 09:43:00;;;;;;;8.77;4.00;;;21.20;94.60;;;;;;5002743;28;20136;-75
2022/05/20 09:45:27;;;;;;;6.47;3.80;;;21.20;93.80;;;;;;5013896;28;20049;-75
2022/05/20 09:47:57;;;;;;;6.43;3.75;;;21.30;94.00;;;;;;5013585;28;20041;-75
2022/05/20 09:50:25;;;;;;;5.07;3.95;;;21.50;94.10;;;;;;5014499;28;20124;-75
2022/05/20 09:52:55;;;;;;;5.65;3.58;;;21.50;91.20;;;;;;4994417;28;20050;-74
2022/05/20 09:55:27;;;;;;;7.15;3.45;;;21.20;92.30;;;;;;5012329;28;20048;-73
2022/05/20 09:57:56;;;;;;;7.35;3.35;;;21.30;93.90;;;;;;5012393;28;20037;-73
2022/05/20 10:00:26;;;;;;;6.07;3.58;;;21.40;94.50;;;;;;5004914;28;20042;-75
2022/05/20 10:03:14;;;;;;;5.03;3.35;;;21.50;94.00;;;;;;4996392;28;20042;-75
2022/05/20 10:06:08;;;;;;;6.65;3.90;;;21.50;93.80;;;;;;5015211;28;20045;-74
2022/05/20 10:08:50;;;;;;;5.85;3.40;;;21.50;92.60;;;;;;5006690;28;20042;-74
2022/05/20 10:11:19;;;;;;;;;;;21.30;93.00;;;;;;5010026;28;20084;-76
2022/05/20 10:13:57;;;;;;;6.40;3.63;;;21.30;93.70;;;;;;5001128;28;19968;-76
2022/05/20 10:16:39;;;;;;;4.47;2.70;;;21.20;93.10;;;;;;5032563;28;20671;-76
2022/05/20 10:19:16;;;;;;;6.07;2.55;;;21.10;93.40;;;;;;5017098;28;20597;-76
2022/05/20 10:21:51;;;;;;;4.85;2.97;;;21.10;93.10;;;;;;5009116;28;20349;-77
2022/05/20 10:24:37;;;;;;;4.47;2.55;;;21.00;93.10;;;;;;5015627;28;20067;-74
2022/05/20 10:27:25;;;;;;;5.50;3.60;;;21.00;94.00;;;;;;5026607;28;20056;-74
2022/05/20 10:33:04;;;;;;;3.65;2.80;;;21.30;93.50;;;;;;5003782;28;20041;-73
2022/05/20 10:35:48;;;;;;;4.95;3.25;;;21.50;93.60;;;;;;5027555;28;20053;-74
2022/05/20 10:38:35;;;;;;;4.68;3.25;;;21.50;91.90;;;;;;4994743;28;20084;-74
2022/05/20 10:41:19;;;;;;;3.92;3.53;;;21.30;91.80;;;;;;5011126;28;20129;-73
2022/05/20 10:50:03;;;;;;;5.60;3.63;;;21.40;90.50;;;;;;5027594;28;20050;-73
2022/05/20 10:52:53;;;;;;;6.10;3.45;;;21.20;91.60;;;;;;5013999;28;20438;-74
2022/05/20 10:55:25;;;;;;;6.15;3.60;;;21.40;92.00;;;;;;5014677;28;20036;-74
2022/05/20 10:58:24;;;;;;;6.95;4.50;;;21.10;91.40;;;;;;5011225;28;20120;-73
2022/05/20 11:00:52;;;;;;;6.32;3.70;;;21.30;92.50;;;;;;4990048;28;20387;-73
2022/05/20 11:03:43;;;;;;;5.38;2.83;;;21.60;92.40;;;;;;5025482;28;20129;-73
2022/05/20 11:06:16;;;;;;;3.72;2.20;;;21.60;91.40;;;;;;4984037;28;20046;-73
2022/05/20 11:09:07;;;;;;;6.15;2.45;;;21.70;91.70;;;;;;5014170;28;20042;-73
2022/05/20 11:11:55;;;;;;;5.28;2.67;;;21.70;89.10;;;;;;5013304;28;20116;-73
2022/05/20 11:14:32;;;;;;;5.47;2.50;;;21.90;89.50;;;;;;5024779;28;20402;-73
2022/05/20 11:17:23;;;;;;;5.07;2.70;;;21.80;85.80;;;;;;4993812;28;20527;-74
2022/05/20 11:20:13;;;;;;;5.10;3.40;;;21.60;86.00;;;;;;5028217;28;20073;-73
2022/05/20 11:23:00;;;;;;;4.13;3.20;;;21.90;84.90;;;;;;5009208;28;20041;-73
2022/05/20 11:25:29;;;;;;;5.35;2.97;;;22.00;90.00;;;;;;5013352;28;20045;-73
2022/05/20 11:28:03;;;;;;;3.58;2.90;;;22.00;85.70;;;;;;5027877;28;20069;-73
2022/05/20 11:30:50;;;;;;;3.80;3.30;;;22.20;86.70;;;;;;5014518;28;20052;-73
2022/05/20 11:34:06;;;;;;;4.65;4.15;;;22.30;89.70;;;;;;5044270;28;20045;-73
2022/05/20 11:37:04;;;;;;;4.68;3.85;;;22.40;89.10;;;;;;5032255;28;20063;-73
2022/05/20 11:39:58;;;;;;;4.65;3.38;;;22.20;87.40;;;;;;5002706;28;20045;-73
2022/05/20 11:43:13;;;;;;;4.97;2.90;;;22.00;88.90;;;;;;5012050;28;20041;-73
2022/05/20 11:45:52;;;;;;;4.32;3.30;;;22.10;87.50;;;;;;5013276;28;20048;-74
2022/05/20 11:48:26;;;;;;;3.70;3.40;;;22.30;83.50;;;;;;5013465;28;20045;-73
2022/05/20 11:50:55;;;;;;;3.67;3.22;;;22.20;86.30;;;;;;5012398;28;20041;-73
2022/05/20 11:53:41;;;;;;;5.55;3.90;;;22.50;89.40;;;;;;5007133;28;20099;-73
2022/05/20 11:56:23;;;;;;;4.05;3.30;;;22.70;86.70;;;;;;5013196;28;20056;-73
2022/05/20 11:59:16;;;;;;;6.10;3.08;;;22.60;86.80;;;;;;5012087;28;20052;-74
2022/05/20 12:01:45;;;;;;;6.28;3.10;;;22.60;87.00;;;;;;5013274;28;20052;-73
2022/05/20 12:04:12;;;;;;;4.07;3.30;;;22.50;87.60;;;;;;5013886;28;20049;-74
2022/05/20 12:06:47;;;;;;;5.43;3.50;;;22.80;87.70;;;;;;5029493;28;20049;-74
2022/05/20 12:09:27;;;;;;;4.53;3.58;;;22.70;87.70;;;;;;5025266;28;20111;-73
2022/05/20 12:12:11;;;;;;;4.40;3.50;;;22.80;86.80;;;;;;4998197;28;20052;-73
2022/05/20 12:15:10;;;;;;;5.00;3.28;;;22.80;87.60;;;;;;5032743;28;20128;-73
2022/05/20 12:17:41;;;;;;;2.88;2.60;;;22.60;75.00;;;;;;5009601;28;20071;-73
2022/05/20 12:25:59;;;;;;;5.68;3.25;;;22.10;79.90;;;;;;5036213;28;20080;-72
2022/05/20 12:28:24;;;;;;;3.22;2.92;;;22.20;81.40;;;;;;5002882;28;20092;-72
2022/05/20 12:31:13;;;;;;;4.53;2.70;;;21.90;80.60;;;;;;5012613;28;20041;-72
2022/05/20 12:33:50;;;;;;;1.80;1.70;;;22.10;77.70;;;;;;5013279;28;20129;-72
2022/05/20 12:36:15;;;;;;;3.28;1.52;;;21.80;72.00;;;;;;5011226;28;20056;-72
2022/05/20 12:38:42;;;;;;;2.50;1.60;;;21.80;68.90;;;;;;5028996;28;20037;-73
2022/05/20 12:41:31;;;;;;;2.90;1.70;;;21.90;74.50;;;;;;5028381;28;20053;-73
2022/05/20 12:44:01;;;;;;;3.83;1.63;;;22.00;75.50;;;;;;5037567;28;20044;-74
2022/05/20 12:46:45;;;;;;;3.65;1.80;;;22.10;72.30;;;;;;5032464;28;20045;-73
2022/05/20 12:49:11;;;;;;;3.25;2.03;;;22.10;69.80;;;;;;5018963;28;20046;-73
2022/05/20 12:51:44;;;;;;;2.80;2.40;;;21.90;67.60;;;;;;5009708;28;20047;-73
2022/05/20 12:54:17;;;;;;;3.83;3.42;;;21.80;69.60;;;;;;5027870;28;20057;-73
2022/05/20 12:56:43;;;;;;;4.88;3.53;;;21.90;74.00;;;;;;5013128;28;20048;-73
2022/05/20 12:59:18;;;;;;;4.95;4.45;;;21.90;79.20;;;;;;5014054;28;20045;-72
2022/05/20 13:01:50;;;;;;;5.68;4.78;;;22.10;82.10;;;;;;5026511;28;20058;-72
2022/05/20 13:04:17;;;;;;;6.93;4.25;;;22.00;79.10;;;;;;5023592;28;20113;-72
2022/05/20 13:06:47;;;;;;;7.85;4.55;;;22.00;81.30;;;;;;5013046;28;20541;-72
2022/05/20 13:09:21;;;;;;;7.95;4.95;;;21.80;80.30;;;;;;5015682;28;20033;-73
2022/05/20 13:11:50;;;;;;;5.65;4.60;;;21.90;80.10;;;;;;5027473;28;20033;-72
2022/05/20 13:14:17;;;;;;;6.15;5.22;;;22.00;82.90;;;;;;5029627;28;20046;-73
2022/05/20 13:16:48;;;;;;;6.00;5.40;;;21.90;77.80;;;;;;5012679;28;20041;-72
2022/05/20 13:19:17;;;;;;;5.03;4.63;;;21.70;79.50;;;;;;5027992;28;20080;-72
2022/05/20 13:21:49;;;;;;;5.80;5.20;;;21.60;80.60;;;;;;5012714;28;20483;-72
2022/05/20 13:24:17;;;;;;;6.05;4.97;;;21.30;79.80;;;;;;5014083;28;20124;-73
2022/05/20 13:26:44;;;;;;;7.03;5.05;;;21.20;81.20;;;;;;5016921;28;20037;-73
2022/05/20 13:29:19;;;;;;;5.28;4.72;;;21.20;84.70;;;;;;5014791;28;20411;-72
2022/05/20 13:31:45;;;;;;;6.03;5.38;;;21.10;86.00;;;;;;5016669;28;20046;-73
2022/05/20 13:34:12;;;;;;;6.90;5.78;;;20.70;83.20;;;;;;5022721;28;20033;-73
2022/05/20 13:36:43;;;;;;;8.25;7.50;;;20.40;86.00;;;;;;5014572;28;20099;-73
2022/05/20 13:39:15;;;;;;;8.68;7.88;;;20.20;86.90;;;;;;5033152;28;20055;-72
2022/05/20 13:41:43;;;;;;;8.93;8.13;;;20.10;86.30;;;;;;5012162;28;20053;-72
2022/05/20 13:44:08;;;;;;;9.48;8.57;;;20.10;88.00;;;;;;5024634;28;20041;-72